sensor_id;sensor_type;location;lat;lon;timestamp;pressure;altitude;pressure_sealevel;temperature;humidity
70815;BME280;58428;49.478;10.986;2023-04-28T00:00:27;98371.69;;;10.77;100.00
70815;BME280;58428;49.478;10.986;2023-04-28T00:02:52;98371.84;;;10.81;100.00
70815;BME280;58428;49.478;10.986;2023-04-28T00:05:19;98380.88;;;10.85;100.00
70815;BME280;58428;49.478;10.986;2023-04-28T00:07:48;98385.50;;;10.84;100.00
70815;BME280;58428;49.478;10.986;2023-04-28T00:10:13;98366.09;;;10.82;100.00
70815;BME280;58428;49.478;10.986;2023-04-28T00:12:39;98359.75;;;10.78;100.00
70815;BME280;58428;49.478;10.986;2023-04-28T00:15:04;98352.22;;;10.84;100.00
70815;BME280;58428;49.478;10.986;2023-04-28T00:17:30;98357.00;;;10.87;100.00
70815;BME280;58428;49.478;10.986;2023-04-28T00:19:58;98353.97;;;10.88;100.00
70815;BME280;58428;49.478;10.986;2023-04-28T00:22:23;98350.56;;;10.91;100.00
70815;BME280;58428;49.478;10.986;2023-04-28T00:24:49;98354.56;;;10.94;100.00
70815;BME280;58428;49.478;10.986;2023-04-28T00:27:14;98350.41;;;10.96;100.00
70815;BME280;58428;49.478;10.986;2023-04-28T00:29:40;98354.44;;;10.90;100.00
70815;BME280;58428;49.478;10.986;2023-04-28T00:32:05;98334.22;;;10.88;100.00
70815;BME280;58428;49.478;10.986;2023-04-28T00:34:33;98332.94;;;10.85;100.00
70815;BME280;58428;49.478;10.986;2023-04-28T00:37:02;98331.69;;;10.83;100.00
70815;BME280;58428;49.478;10.986;2023-04-28T00:39:27;98334.59;;;10.78;100.00
70815;BME280;58428;49.478;10.986;2023-04-28T00:41:53;98333.66;;;10.74;100.00
70815;BME280;58428;49.478;10.986;2023-04-28T00:44:18;98330.47;;;10.80;100.00
70815;BME280;58428;49.478;10.986;2023-04-28T00:46:43;98330.00;;;10.78;100.00
70815;BME280;58428;49.478;10.986;2023-04-28T00:49:09;98320.75;;;10.79;100.00
70815;BME280;58428;49.478;10.986;2023-04-28T00:51:35;98322.66;;;10.79;100.00
70815;BME280;58428;49.478;10.986;2023-04-28T00:54:01;98316.94;;;10.80;100.00
70815;BME280;58428;49.478;10.986;2023-04-28T00:56:30;98317.44;;;10.74;100.00
70815;BME280;58428;49.478;10.986;2023-04-28T00:58:56;98311.69;;;10.75;100.00
70815;BME280;58428;49.478;10.986;2023-04-28T01:01:21;98311.16;;;10.82;100.00
70815;BME280;58428;49.478;10.986;2023-04-28T01:03:47;98304.66;;;10.83;100.00
70815;BME280;58428;49.478;10.986;2023-04-28T01:06:13;98305.44;;;10.83;100.00
70815;BME280;58428;49.478;10.986;2023-04-28T01:08:39;98292.81;;;10.87;100.00
70815;BME280;58428;49.478;10.986;2023-04-28T01:11:04;98297.78;;;10.85;100.00
70815;BME280;58428;49.478;10.986;2023-04-28T01:13:30;98303.84;;;10.82;100.00
70815;BME280;58428;49.478;10.986;2023-04-28T01:15:55;98300.22;;;10.78;100.00
70815;BME280;58428;49.478;10.986;2023-04-28T01:18:21;98289.50;;;10.82;100.00
70815;BME280;58428;49.478;10.986;2023-04-28T01:20:47;98291.91;;;10.83;100.00
70815;BME280;58428;49.478;10.986;2023-04-28T01:23:16;98281.66;;;10.89;100.00
70815;BME280;58428;49.478;10.986;2023-04-28T01:25:42;98282.91;;;10.91;100.00
70815;BME280;58428;49.478;10.986;2023-04-28T01:28:09;98283.06;;;10.95;100.00
70815;BME280;58428;49.478;10.986;2023-04-28T01:30:35;98287.47;;;10.99;100.00
70815;BME280;58428;49.478;10.986;2023-04-28T01:33:01;98281.94;;;10.96;100.00
70815;BME280;58428;49.478;10.986;2023-04-28T01:35:26;98282.44;;;10.89;100.00
70815;BME280;58428;49.478;10.986;2023-04-28T01:37:52;98288.31;;;10.91;100.00
70815;BME280;58428;49.478;10.986;2023-04-28T01:40:19;98287.22;;;10.92;100.00
70815;BME280;58428;49.478;10.986;2023-04-28T01:42:44;98277.97;;;10.93;100.00
70815;BME280;58428;49.478;10.986;2023-04-28T01:45:10;98281.25;;;10.99;100.00
70815;BME280;58428;49.478;10.986;2023-04-28T01:47:36;98269.44;;;11.03;100.00
70815;BME280;58428;49.478;10.986;2023-04-28T01:50:03;98264.84;;;11.03;100.00
70815;BME280;58428;49.478;10.986;2023-04-28T01:52:28;98266.94;;;10.98;100.00
70815;BME280;58428;49.478;10.986;2023-04-28T01:54:54;98262.19;;;10.95;100.00
70815;BME280;58428;49.478;10.986;2023-04-28T01:57:20;98264.44;;;10.93;100.00
70815;BME280;58428;49.478;10.986;2023-04-28T01:59:46;98263.31;;;10.94;100.00
70815;BME280;58428;49.478;10.986;2023-04-28T02:02:14;98263.88;;;10.88;100.00
70815;BME280;58428;49.478;10.986;2023-04-28T02:04:40;98270.09;;;10.80;100.00
70815;BME280;58428;49.478;10.986;2023-04-28T02:07:06;98270.31;;;10.75;100.00
70815;BME280;58428;49.478;10.986;2023-04-28T02:09:34;98261.75;;;10.73;100.00
70815;BME280;58428;49.478;10.986;2023-04-28T02:12:00;98267.34;;;10.68;100.00
70815;BME280;58428;49.478;10.986;2023-04-28T02:14:27;98263.53;;;10.69;100.00
70815;BME280;58428;49.478;10.986;2023-04-28T02:16:53;98263.00;;;10.75;100.00
70815;BME280;58428;49.478;10.986;2023-04-28T02:19:18;98265.16;;;10.82;100.00
70815;BME280;58428;49.478;10.986;2023-04-28T02:21:44;98261.00;;;10.84;100.00
70815;BME280;58428;49.478;10.986;2023-04-28T02:24:09;98260.03;;;10.89;100.00
70815;BME280;58428;49.478;10.986;2023-04-28T02:26:34;98250.13;;;10.93;100.00
70815;BME280;58428;49.478;10.986;2023-04-28T02:29:03;98247.41;;;10.93;100.00
70815;BME280;58428;49.478;10.986;2023-04-28T02:31:28;98242.13;;;10.96;100.00
70815;BME280;58428;49.478;10.986;2023-04-28T02:33:54;98242.91;;;10.97;100.00
70815;BME280;58428;49.478;10.986;2023-04-28T02:36:20;98243.81;;;11.01;100.00
70815;BME280;58428;49.478;10.986;2023-04-28T02:38:46;98246.06;;;10.99;100.00
70815;BME280;58428;49.478;10.986;2023-04-28T02:41:11;98249.00;;;10.94;100.00
70815;BME280;58428;49.478;10.986;2023-04-28T02:43:39;98239.81;;;10.86;100.00
70815;BME280;58428;49.478;10.986;2023-04-28T02:46:06;98239.16;;;10.89;100.00
70815;BME280;58428;49.478;10.986;2023-04-28T02:48:33;98237.91;;;10.87;100.00
70815;BME280;58428;49.478;10.986;2023-04-28T02:51:00;98237.59;;;10.88;100.00
70815;BME280;58428;49.478;10.986;2023-04-28T02:53:27;98238.69;;;10.87;100.00
70815;BME280;58428;49.478;10.986;2023-04-28T02:55:53;98226.53;;;10.93;100.00
70815;BME280;58428;49.478;10.986;2023-04-28T02:58:18;98223.97;;;10.97;100.00
70815;BME280;58428;49.478;10.986;2023-04-28T03:00:45;98225.34;;;11.02;100.00
70815;BME280;58428;49.478;10.986;2023-04-28T03:03:11;98228.97;;;11.06;100.00
70815;BME280;58428;49.478;10.986;2023-04-28T03:05:37;98217.94;;;11.11;100.00
70815;BME280;58428;49.478;10.986;2023-04-28T03:08:02;98220.41;;;11.16;100.00
70815;BME280;58428;49.478;10.986;2023-04-28T03:10:28;98215.34;;;11.15;100.00
70815;BME280;58428;49.478;10.986;2023-04-28T03:12:53;98212.66;;;11.15;100.00
70815;BME280;58428;49.478;10.986;2023-04-28T03:15:18;98201.88;;;11.06;100.00
70815;BME280;58428;49.478;10.986;2023-04-28T03:17:44;98205.19;;;11.12;100.00
70815;BME280;58428;49.478;10.986;2023-04-28T03:20:11;98197.38;;;11.10;100.00
70815;BME280;58428;49.478;10.986;2023-04-28T03:22:37;98183.19;;;11.13;100.00
70815;BME280;58428;49.478;10.986;2023-04-28T03:25:03;98184.09;;;11.17;100.00
70815;BME280;58428;49.478;10.986;2023-04-28T03:27:29;98181.53;;;11.21;100.00
70815;BME280;58428;49.478;10.986;2023-04-28T03:29:55;98175.28;;;11.20;100.00
70815;BME280;58428;49.478;10.986;2023-04-28T03:32:20;98179.94;;;11.20;100.00
70815;BME280;58428;49.478;10.986;2023-04-28T03:34:48;98183.66;;;11.15;100.00
70815;BME280;58428;49.478;10.986;2023-04-28T03:37:14;98169.78;;;11.17;100.00
70815;BME280;58428;49.478;10.986;2023-04-28T03:39:39;98174.19;;;11.21;100.00
70815;BME280;58428;49.478;10.986;2023-04-28T03:42:04;98172.50;;;11.17;100.00
70815;BME280;58428;49.478;10.986;2023-04-28T03:44:30;98169.66;;;11.13;100.00
70815;BME280;58428;49.478;10.986;2023-04-28T03:46:56;98172.03;;;11.15;100.00
70815;BME280;58428;49.478;10.986;2023-04-28T03:49:22;98165.81;;;11.14;100.00
70815;BME280;58428;49.478;10.986;2023-04-28T03:51:47;98172.13;;;11.18;100.00
70815;BME280;58428;49.478;10.986;2023-04-28T03:54:14;98170.78;;;11.24;100.00
70815;BME280;58428;49.478;10.986;2023-04-28T03:56:39;98167.88;;;11.29;100.00
70815;BME280;58428;49.478;10.986;2023-04-28T03:59:05;98150.03;;;11.28;100.00
70815;BME280;58428;49.478;10.986;2023-04-28T04:01:31;98162.47;;;11.29;100.00
70815;BME280;58428;49.478;10.986;2023-04-28T04:03:56;98163.38;;;11.33;100.00
70815;BME280;58428;49.478;10.986;2023-04-28T04:06:22;98159.66;;;11.38;100.00
70815;BME280;58428;49.478;10.986;2023-04-28T04:08:48;98150.75;;;11.37;100.00
70815;BME280;58428;49.478;10.986;2023-04-28T04:11:14;98155.38;;;11.37;100.00
70815;BME280;58428;49.478;10.986;2023-04-28T04:13:39;98160.47;;;11.38;100.00
70815;BME280;58428;49.478;10.986;2023-04-28T04:16:05;98145.59;;;11.44;100.00
70815;BME280;58428;49.478;10.986;2023-04-28T04:18:31;98145.69;;;11.47;100.00
70815;BME280;58428;49.478;10.986;2023-04-28T04:20:56;98139.69;;;11.42;100.00
70815;BME280;58428;49.478;10.986;2023-04-28T04:23:23;98145.44;;;11.40;100.00
70815;BME280;58428;49.478;10.986;2023-04-28T04:25:49;98152.09;;;11.43;100.00
70815;BME280;58428;49.478;10.986;2023-04-28T04:28:15;98153.72;;;11.44;100.00
70815;BME280;58428;49.478;10.986;2023-04-28T04:30:40;98157.34;;;11.48;100.00
70815;BME280;58428;49.478;10.986;2023-04-28T04:33:06;98154.63;;;11.48;100.00
70815;BME280;58428;49.478;10.986;2023-04-28T04:35:33;98147.00;;;11.41;100.00
70815;BME280;58428;49.478;10.986;2023-04-28T04:37:59;98144.13;;;11.46;100.00
70815;BME280;58428;49.478;10.986;2023-04-28T04:40:25;98151.00;;;11.44;100.00
70815;BME280;58428;49.478;10.986;2023-04-28T04:42:50;98145.47;;;11.52;100.00
70815;BME280;58428;49.478;10.986;2023-04-28T04:45:16;98144.25;;;11.62;100.00
70815;BME280;58428;49.478;10.986;2023-04-28T04:47:42;98144.81;;;11.67;100.00
70815;BME280;58428;49.478;10.986;2023-04-28T04:50:10;98156.31;;;11.64;100.00
70815;BME280;58428;49.478;10.986;2023-04-28T04:52:36;98151.03;;;11.68;100.00
70815;BME280;58428;49.478;10.986;2023-04-28T04:55:02;98148.75;;;11.70;100.00
70815;BME280;58428;49.478;10.986;2023-04-28T04:57:28;98150.69;;;11.69;100.00
70815;BME280;58428;49.478;10.986;2023-04-28T04:59:55;98149.53;;;11.70;100.00
70815;BME280;58428;49.478;10.986;2023-04-28T05:02:21;98150.25;;;11.67;100.00
70815;BME280;58428;49.478;10.986;2023-04-28T05:04:46;98148.75;;;11.70;100.00
70815;BME280;58428;49.478;10.986;2023-04-28T05:07:12;98158.56;;;11.74;100.00
70815;BME280;58428;49.478;10.986;2023-04-28T05:09:37;98163.09;;;11.70;100.00
70815;BME280;58428;49.478;10.986;2023-04-28T05:12:03;98166.38;;;11.76;100.00
70815;BME280;58428;49.478;10.986;2023-04-28T05:14:29;98161.63;;;11.73;100.00
70815;BME280;58428;49.478;10.986;2023-04-28T05:16:54;98159.47;;;11.66;100.00
70815;BME280;58428;49.478;10.986;2023-04-28T05:19:20;98161.97;;;11.71;100.00
70815;BME280;58428;49.478;10.986;2023-04-28T05:21:45;98153.72;;;11.68;100.00
70815;BME280;58428;49.478;10.986;2023-04-28T05:24:16;98154.50;;;11.68;100.00
70815;BME280;58428;49.478;10.986;2023-04-28T05:26:42;98161.63;;;11.73;100.00
70815;BME280;58428;49.478;10.986;2023-04-28T05:29:07;98167.84;;;11.73;100.00
70815;BME280;58428;49.478;10.986;2023-04-28T05:31:34;98156.56;;;11.71;100.00
70815;BME280;58428;49.478;10.986;2023-04-28T05:33:59;98163.66;;;11.76;100.00
70815;BME280;58428;49.478;10.986;2023-04-28T05:36:26;98165.22;;;11.76;100.00
70815;BME280;58428;49.478;10.986;2023-04-28T05:38:52;98160.94;;;11.76;100.00
70815;BME280;58428;49.478;10.986;2023-04-28T05:41:18;98165.59;;;11.75;100.00
70815;BME280;58428;49.478;10.986;2023-04-28T05:43:43;98153.59;;;11.88;100.00
70815;BME280;58428;49.478;10.986;2023-04-28T05:46:10;98162.97;;;12.02;100.00
70815;BME280;58428;49.478;10.986;2023-04-28T05:48:35;98158.31;;;12.14;100.00
70815;BME280;58428;49.478;10.986;2023-04-28T05:51:01;98156.63;;;12.22;100.00
70815;BME280;58428;49.478;10.986;2023-04-28T05:53:26;98152.53;;;12.28;100.00
70815;BME280;58428;49.478;10.986;2023-04-28T05:55:51;98145.50;;;12.27;100.00
70815;BME280;58428;49.478;10.986;2023-04-28T05:58:17;98148.44;;;12.34;100.00
70815;BME280;58428;49.478;10.986;2023-04-28T06:00:42;98148.75;;;12.44;100.00
70815;BME280;58428;49.478;10.986;2023-04-28T06:03:08;98148.19;;;12.50;100.00
70815;BME280;58428;49.478;10.986;2023-04-28T06:05:35;98143.72;;;12.58;100.00
70815;BME280;58428;49.478;10.986;2023-04-28T06:08:01;98140.44;;;12.64;100.00
70815;BME280;58428;49.478;10.986;2023-04-28T06:10:27;98144.81;;;12.69;100.00
70815;BME280;58428;49.478;10.986;2023-04-28T06:12:54;98143.34;;;12.71;100.00
70815;BME280;58428;49.478;10.986;2023-04-28T06:15:20;98146.25;;;12.78;100.00
70815;BME280;58428;49.478;10.986;2023-04-28T06:17:45;98140.69;;;12.87;100.00
70815;BME280;58428;49.478;10.986;2023-04-28T06:20:11;98153.38;;;12.83;100.00
70815;BME280;58428;49.478;10.986;2023-04-28T06:22:38;98144.94;;;12.72;100.00
70815;BME280;58428;49.478;10.986;2023-04-28T06:25:04;98147.09;;;12.67;100.00
70815;BME280;58428;49.478;10.986;2023-04-28T06:27:30;98153.22;;;12.64;100.00
70815;BME280;58428;49.478;10.986;2023-04-28T06:29:57;98149.69;;;12.63;100.00
70815;BME280;58428;49.478;10.986;2023-04-28T06:32:22;98144.47;;;12.70;100.00
70815;BME280;58428;49.478;10.986;2023-04-28T06:34:48;98137.81;;;12.68;100.00
70815;BME280;58428;49.478;10.986;2023-04-28T06:37:13;98133.94;;;12.81;100.00
70815;BME280;58428;49.478;10.986;2023-04-28T06:39:39;98133.44;;;12.90;100.00
70815;BME280;58428;49.478;10.986;2023-04-28T06:42:06;98131.25;;;12.96;100.00
70815;BME280;58428;49.478;10.986;2023-04-28T06:44:31;98125.72;;;12.92;100.00
70815;BME280;58428;49.478;10.986;2023-04-28T06:46:57;98130.47;;;12.95;100.00
70815;BME280;58428;49.478;10.986;2023-04-28T06:49:23;98120.28;;;12.92;100.00
70815;BME280;58428;49.478;10.986;2023-04-28T06:51:48;98121.00;;;12.89;100.00
70815;BME280;58428;49.478;10.986;2023-04-28T06:54:13;98120.66;;;12.91;100.00
70815;BME280;58428;49.478;10.986;2023-04-28T06:56:39;98118.66;;;12.76;100.00
70815;BME280;58428;49.478;10.986;2023-04-28T06:59:04;98117.88;;;12.76;100.00
70815;BME280;58428;49.478;10.986;2023-04-28T07:01:30;98126.47;;;12.78;100.00
70815;BME280;58428;49.478;10.986;2023-04-28T07:03:55;98133.72;;;12.74;100.00
70815;BME280;58428;49.478;10.986;2023-04-28T07:06:21;98143.25;;;12.68;100.00
70815;BME280;58428;49.478;10.986;2023-04-28T07:08:46;98126.22;;;12.55;100.00
70815;BME280;58428;49.478;10.986;2023-04-28T07:11:11;98120.66;;;12.64;100.00
70815;BME280;58428;49.478;10.986;2023-04-28T07:13:37;98125.16;;;12.60;100.00
70815;BME280;58428;49.478;10.986;2023-04-28T07:16:03;98118.06;;;12.55;100.00
70815;BME280;58428;49.478;10.986;2023-04-28T07:18:28;98122.28;;;12.53;100.00
70815;BME280;58428;49.478;10.986;2023-04-28T07:20:55;98124.09;;;12.49;100.00
70815;BME280;58428;49.478;10.986;2023-04-28T07:26:03;98140.09;;;12.27;100.00
70815;BME280;58428;49.478;10.986;2023-04-28T07:28:46;98150.66;;;12.05;100.00
70815;BME280;58428;49.478;10.986;2023-04-28T07:31:11;98143.09;;;12.10;100.00
70815;BME280;58428;49.478;10.986;2023-04-28T07:33:37;98141.25;;;12.14;100.00
70815;BME280;58428;49.478;10.986;2023-04-28T07:36:02;98150.19;;;12.14;100.00
70815;BME280;58428;49.478;10.986;2023-04-28T07:38:29;98149.31;;;11.99;100.00
70815;BME280;58428;49.478;10.986;2023-04-28T07:40:55;98150.22;;;11.91;100.00
70815;BME280;58428;49.478;10.986;2023-04-28T07:43:21;98159.03;;;11.88;100.00
70815;BME280;58428;49.478;10.986;2023-04-28T07:45:46;98161.72;;;11.88;100.00
70815;BME280;58428;49.478;10.986;2023-04-28T07:48:14;98154.84;;;11.78;100.00
70815;BME280;58428;49.478;10.986;2023-04-28T07:50:40;98160.03;;;11.83;100.00
70815;BME280;58428;49.478;10.986;2023-04-28T07:53:06;98154.97;;;11.70;100.00
70815;BME280;58428;49.478;10.986;2023-04-28T07:55:31;98165.00;;;11.46;100.00
70815;BME280;58428;49.478;10.986;2023-04-28T07:57:58;98170.16;;;11.39;100.00
70815;BME280;58428;49.478;10.986;2023-04-28T08:00:24;98164.84;;;11.42;100.00
70815;BME280;58428;49.478;10.986;2023-04-28T08:02:51;98168.06;;;11.56;100.00
70815;BME280;58428;49.478;10.986;2023-04-28T08:05:18;98157.78;;;11.74;100.00
70815;BME280;58428;49.478;10.986;2023-04-28T08:07:43;98162.53;;;11.88;100.00
70815;BME280;58428;49.478;10.986;2023-04-28T08:10:14;98158.22;;;11.99;100.00
70815;BME280;58428;49.478;10.986;2023-04-28T08:12:40;98157.88;;;12.01;100.00
70815;BME280;58428;49.478;10.986;2023-04-28T08:15:07;98154.16;;;11.93;100.00
70815;BME280;58428;49.478;10.986;2023-04-28T08:17:33;98162.63;;;11.92;100.00
70815;BME280;58428;49.478;10.986;2023-04-28T08:19:58;98147.25;;;11.96;100.00
70815;BME280;58428;49.478;10.986;2023-04-28T08:22:24;98149.06;;;12.04;100.00
70815;BME280;58428;49.478;10.986;2023-04-28T08:24:50;98138.78;;;12.09;100.00
70815;BME280;58428;49.478;10.986;2023-04-28T08:27:15;98138.56;;;12.14;100.00
70815;BME280;58428;49.478;10.986;2023-04-28T08:29:40;98141.00;;;12.19;100.00
70815;BME280;58428;49.478;10.986;2023-04-28T08:32:06;98140.63;;;12.32;100.00
70815;BME280;58428;49.478;10.986;2023-04-28T08:34:33;98132.84;;;12.31;100.00
70815;BME280;58428;49.478;10.986;2023-04-28T08:36:58;98121.81;;;12.24;100.00
70815;BME280;58428;49.478;10.986;2023-04-28T08:39:24;98119.09;;;12.24;100.00
70815;BME280;58428;49.478;10.986;2023-04-28T08:41:52;98114.66;;;12.31;100.00
70815;BME280;58428;49.478;10.986;2023-04-28T08:44:18;98105.16;;;12.37;100.00
70815;BME280;58428;49.478;10.986;2023-04-28T08:46:45;98097.78;;;12.38;100.00
70815;BME280;58428;49.478;10.986;2023-04-28T08:49:15;98109.09;;;12.40;100.00
70815;BME280;58428;49.478;10.986;2023-04-28T08:51:59;98097.84;;;12.26;100.00
70815;BME280;58428;49.478;10.986;2023-04-28T08:54:30;98096.91;;;12.34;100.00
70815;BME280;58428;49.478;10.986;2023-04-28T08:56:59;98102.88;;;12.39;100.00
70815;BME280;58428;49.478;10.986;2023-04-28T08:59:25;98102.38;;;12.49;100.00
70815;BME280;58428;49.478;10.986;2023-04-28T09:01:51;98094.75;;;12.39;100.00
70815;BME280;58428;49.478;10.986;2023-04-28T09:04:16;98104.97;;;12.18;100.00
70815;BME280;58428;49.478;10.986;2023-04-28T09:06:42;98113.38;;;12.13;100.00
70815;BME280;58428;49.478;10.986;2023-04-28T09:09:29;98110.50;;;12.22;100.00
70815;BME280;58428;49.478;10.986;2023-04-28T09:12:00;98113.66;;;12.24;100.00
70815;BME280;58428;49.478;10.986;2023-04-28T09:14:29;98117.38;;;12.31;100.00
70815;BME280;58428;49.478;10.986;2023-04-28T09:16:55;98116.47;;;12.27;100.00
70815;BME280;58428;49.478;10.986;2023-04-28T09:19:21;98112.66;;;12.16;100.00
70815;BME280;58428;49.478;10.986;2023-04-28T09:21:59;98112.78;;;12.20;100.00
70815;BME280;58428;49.478;10.986;2023-04-28T09:24:34;98117.84;;;12.21;100.00
70815;BME280;58428;49.478;10.986;2023-04-28T09:27:02;98117.41;;;12.19;100.00
70815;BME280;58428;49.478;10.986;2023-04-28T09:29:29;98118.97;;;12.20;100.00
70815;BME280;58428;49.478;10.986;2023-04-28T09:32:14;98109.81;;;12.25;100.00
70815;BME280;58428;49.478;10.986;2023-04-28T09:34:45;98112.28;;;12.30;100.00
70815;BME280;58428;49.478;10.986;2023-04-28T09:37:15;98117.56;;;12.38;100.00
70815;BME280;58428;49.478;10.986;2023-04-28T09:39:52;98110.69;;;12.41;100.00
70815;BME280;58428;49.478;10.986;2023-04-28T09:47:35;98093.09;;;12.77;100.00
70815;BME280;58428;49.478;10.986;2023-04-28T09:50:04;98094.13;;;13.00;100.00
70815;BME280;58428;49.478;10.986;2023-04-28T09:52:33;98092.09;;;13.12;100.00
70815;BME280;58428;49.478;10.986;2023-04-28T09:55:01;98104.03;;;13.08;100.00
70815;BME280;58428;49.478;10.986;2023-04-28T09:57:30;98104.25;;;13.30;100.00
70815;BME280;58428;49.478;10.986;2023-04-28T10:00:00;98096.69;;;13.39;100.00
70815;BME280;58428;49.478;10.986;2023-04-28T10:02:27;98091.09;;;13.32;100.00
70815;BME280;58428;49.478;10.986;2023-04-28T10:04:52;98076.34;;;13.33;100.00
70815;BME280;58428;49.478;10.986;2023-04-28T10:07:19;98075.56;;;13.32;100.00
70815;BME280;58428;49.478;10.986;2023-04-28T10:09:50;98070.47;;;13.61;100.00
70815;BME280;58428;49.478;10.986;2023-04-28T10:12:17;98067.25;;;13.90;100.00
70815;BME280;58428;49.478;10.986;2023-04-28T10:14:45;98055.06;;;14.18;100.00
70815;BME280;58428;49.478;10.986;2023-04-28T10:17:15;98057.00;;;14.36;100.00
70815;BME280;58428;49.478;10.986;2023-04-28T10:19:42;98053.47;;;14.55;100.00
70815;BME280;58428;49.478;10.986;2023-04-28T10:25:30;98035.16;;;15.15;100.00
70815;BME280;58428;49.478;10.986;2023-04-28T10:27:59;98046.44;;;15.36;100.00
70815;BME280;58428;49.478;10.986;2023-04-28T10:30:25;98052.53;;;15.07;100.00
70815;BME280;58428;49.478;10.986;2023-04-28T10:35:45;98052.31;;;14.74;100.00
70815;BME280;58428;49.478;10.986;2023-04-28T10:38:15;98057.69;;;14.71;100.00
70815;BME280;58428;49.478;10.986;2023-04-28T10:40:45;98052.06;;;14.42;100.00
70815;BME280;58428;49.478;10.986;2023-04-28T10:56:22;98044.84;;;14.31;100.00
70815;BME280;58428;49.478;10.986;2023-04-28T10:58:51;98041.22;;;14.64;100.00
70815;BME280;58428;49.478;10.986;2023-04-28T11:06:29;98036.25;;;15.33;100.00
70815;BME280;58428;49.478;10.986;2023-04-28T11:09:03;98036.69;;;15.60;100.00
70815;BME280;58428;49.478;10.986;2023-04-28T11:12:04;98036.56;;;15.76;100.00
70815;BME280;58428;49.478;10.986;2023-04-28T11:14:33;98039.44;;;16.15;100.00
70815;BME280;58428;49.478;10.986;2023-04-28T11:17:09;98031.34;;;16.51;100.00
70815;BME280;58428;49.478;10.986;2023-04-28T11:19:43;98030.81;;;16.75;100.00
70815;BME280;58428;49.478;10.986;2023-04-28T11:22:16;98039.22;;;16.92;100.00
70815;BME280;58428;49.478;10.986;2023-04-28T11:25:02;98043.03;;;16.84;100.00
70815;BME280;58428;49.478;10.986;2023-04-28T11:27:31;98036.03;;;16.54;100.00
70815;BME280;58428;49.478;10.986;2023-04-28T11:29:57;98039.81;;;16.43;100.00
70815;BME280;58428;49.478;10.986;2023-04-28T11:32:29;98032.50;;;16.50;100.00
70815;BME280;58428;49.478;10.986;2023-04-28T11:34:55;98035.09;;;16.72;100.00
70815;BME280;58428;49.478;10.986;2023-04-28T11:37:20;98040.94;;;16.71;100.00
70815;BME280;58428;49.478;10.986;2023-04-28T11:39:47;98039.50;;;16.84;100.00
70815;BME280;58428;49.478;10.986;2023-04-28T11:42:14;98038.38;;;16.88;100.00
70815;BME280;58428;49.478;10.986;2023-04-28T11:44:48;98029.50;;;16.98;100.00
70815;BME280;58428;49.478;10.986;2023-04-28T11:47:14;98032.38;;;16.76;100.00
70815;BME280;58428;49.478;10.986;2023-04-28T11:52:08;98040.06;;;16.63;100.00
70815;BME280;58428;49.478;10.986;2023-04-28T11:54:35;98040.09;;;16.67;100.00
70815;BME280;58428;49.478;10.986;2023-04-28T11:57:02;98037.28;;;16.60;100.00
70815;BME280;58428;49.478;10.986;2023-04-28T11:59:34;98033.69;;;16.89;100.00
70815;BME280;58428;49.478;10.986;2023-04-28T12:04:33;98028.28;;;17.32;100.00
70815;BME280;58428;49.478;10.986;2023-04-28T12:07:16;98032.41;;;17.58;100.00
70815;BME280;58428;49.478;10.986;2023-04-28T12:09:43;98025.09;;;17.76;100.00
70815;BME280;58428;49.478;10.986;2023-04-28T12:12:12;98020.53;;;17.97;100.00
70815;BME280;58428;49.478;10.986;2023-04-28T12:14:58;98027.88;;;17.83;100.00
70815;BME280;58428;49.478;10.986;2023-04-28T12:17:28;98034.63;;;17.42;100.00
70815;BME280;58428;49.478;10.986;2023-04-28T12:19:55;98029.19;;;17.46;100.00
70815;BME280;58428;49.478;10.986;2023-04-28T12:22:21;98016.63;;;17.41;100.00
70815;BME280;58428;49.478;10.986;2023-04-28T12:25:06;98016.72;;;17.52;100.00
70815;BME280;58428;49.478;10.986;2023-04-28T12:27:37;98023.16;;;17.80;100.00
70815;BME280;58428;49.478;10.986;2023-04-28T12:30:24;98010.75;;;18.00;100.00
70815;BME280;58428;49.478;10.986;2023-04-28T12:32:52;98015.41;;;17.92;100.00
70815;BME280;58428;49.478;10.986;2023-04-28T12:35:20;98016.84;;;17.72;100.00
70815;BME280;58428;49.478;10.986;2023-04-28T12:37:46;98015.97;;;17.58;100.00
70815;BME280;58428;49.478;10.986;2023-04-28T12:40:11;98014.94;;;17.76;100.00
70815;BME280;58428;49.478;10.986;2023-04-28T12:42:38;98018.97;;;18.00;100.00
70815;BME280;58428;49.478;10.986;2023-04-28T12:45:05;98019.16;;;18.27;100.00
70815;BME280;58428;49.478;10.986;2023-04-28T12:47:31;98012.19;;;18.47;100.00
70815;BME280;58428;49.478;10.986;2023-04-28T12:49:56;98016.44;;;18.34;100.00
70815;BME280;58428;49.478;10.986;2023-04-28T12:52:21;98018.59;;;18.01;100.00
70815;BME280;58428;49.478;10.986;2023-04-28T12:54:48;98010.88;;;18.13;100.00
70815;BME280;58428;49.478;10.986;2023-04-28T12:57:20;98019.56;;;18.33;100.00
70815;BME280;58428;49.478;10.986;2023-04-28T12:59:46;98029.34;;;18.30;100.00
70815;BME280;58428;49.478;10.986;2023-04-28T13:02:12;98040.47;;;17.98;100.00
70815;BME280;58428;49.478;10.986;2023-04-28T13:04:39;98037.09;;;17.61;100.00
70815;BME280;58428;49.478;10.986;2023-04-28T13:07:04;98032.28;;;17.44;100.00
70815;BME280;58428;49.478;10.986;2023-04-28T13:09:31;98017.41;;;17.42;100.00
70815;BME280;58428;49.478;10.986;2023-04-28T13:11:57;98002.41;;;17.22;100.00
70815;BME280;58428;49.478;10.986;2023-04-28T13:14:24;98006.75;;;17.27;100.00
70815;BME280;58428;49.478;10.986;2023-04-28T13:16:51;98015.06;;;16.97;100.00